Time;durP1;ratioP1;P1;durP2;ratioP2;P2;SDS_P1;SDS_P2;PMS_P1;PMS_P2;Temp;Humidity;BMP_temperature;BMP_pressure;BME280_temperature;BME280_humidity;BME280_pressure;Samples;Min_cycle;Max_cycle;Signal;HPM_P1;HPM_P2
2022/01/06 00:01:21;;;;;;;7.87;1.80;;;;;;;;;;6131314;23;20197;-92
2022/01/06 00:04:26;;;;;;;7.60;1.90;;;;;;;;;;6131747;23;20214;-92
2022/01/06 00:07:34;;;;;;;7.97;1.73;;;;;;;;;;6131538;23;20219;-93
2022/01/06 00:10:41;;;;;;;6.57;2.00;;;;;;;;;;6130890;23;20173;-94
2022/01/06 00:31:10;;;;;;;10.20;2.07;;;;;;;;;;6203415;23;20204;-90
2022/01/06 00:34:15;;;;;;;9.47;2.53;;;;;;;;;;6188171;23;20160;-91
2022/01/06 00:37:21;;;;;;;12.10;1.90;;;;;;;;;;6188494;23;20207;-91
2022/01/06 00:40:27;;;;;;;5.83;1.93;;;;;;;;;;6187662;23;20187;-89
2022/01/06 00:43:33;;;;;;;5.73;1.70;;;;;;;;;;6188591;23;20155;-91
2022/01/06 00:46:40;;;;;;;9.30;2.13;;;;;;;;;;6188397;23;20168;-92
2022/01/06 00:49:46;;;;;;;8.07;2.13;;;;;;;;;;6190336;23;20163;-91
2022/01/06 00:56:11;;;;;;;10.00;2.10;;;;;;;;;;6190679;23;20178;-92
2022/01/06 00:59:17;;;;;;;6.40;2.03;;;;;;;;;;6189231;23;20175;-93
2022/01/06 01:02:24;;;;;;;3.80;1.40;;;;;;;;;;6190381;23;20217;-92
2022/01/06 01:05:35;;;;;;;10.50;2.00;;;;;;;;;;6191311;23;20221;-92
2022/01/06 01:08:46;;;;;;;9.73;2.47;;;;;;;;;;6189271;23;20232;-92
2022/01/06 01:11:53;;;;;;;6.47;1.53;;;;;;;;;;6188877;23;20168;-91
2022/01/06 01:15:06;;;;;;;6.40;1.87;;;;;;;;;;6189418;23;20171;-93
2022/01/06 01:18:17;;;;;;;6.77;1.80;;;;;;;;;;6188784;23;20169;-90
2022/01/06 01:21:29;;;;;;;9.83;2.17;;;;;;;;;;6188300;23;20208;-90
2022/01/06 01:24:35;;;;;;;9.47;2.30;;;;;;;;;;6187576;23;20172;-91
2022/01/06 01:27:43;;;;;;;12.07;2.20;;;;;;;;;;6187327;23;20172;-91
2022/01/06 01:31:04;;;;;;;12.47;1.90;;;;;;;;;;6176435;23;20175;-90
2022/01/06 01:34:51;;;;;;;6.77;2.50;;;;;;;;;;6176553;23;20165;-91
2022/01/06 01:37:58;;;;;;;7.07;1.97;;;;;;;;;;6175819;23;20187;-92
2022/01/06 01:41:04;;;;;;;9.90;1.97;;;;;;;;;;6173152;23;20700;-92
2022/01/06 01:44:14;;;;;;;9.47;2.23;;;;;;;;;;6175966;23;20208;-91
2022/01/06 01:47:28;;;;;;;7.37;2.10;;;;;;;;;;6177205;23;20177;-91
2022/01/06 01:50:34;;;;;;;5.53;1.90;;;;;;;;;;6176035;23;20169;-92
2022/01/06 01:53:45;;;;;;;9.20;1.90;;;;;;;;;;6177254;23;20177;-91
2022/01/06 01:56:50;;;;;;;13.67;2.07;;;;;;;;;;6176802;23;20228;-91
2022/01/06 01:59:56;;;;;;;8.97;1.67;;;;;;;;;;6178398;23;20180;-90
2022/01/06 02:03:01;;;;;;;10.90;1.80;;;;;;;;;;6177832;23;20235;-92
2022/01/06 02:06:07;;;;;;;14.27;1.73;;;;;;;;;;6177805;23;20173;-93
2022/01/06 02:09:15;;;;;;;13.00;2.47;;;;;;;;;;6177718;23;20176;-93
2022/01/06 02:12:25;;;;;;;17.33;4.10;;;;;;;;;;6176164;23;20184;-90
2022/01/06 02:15:31;;;;;;;4.20;2.10;;;;;;;;;;6177894;23;20172;-91
2022/01/06 02:18:38;;;;;;;4.53;1.90;;;;;;;;;;6176752;23;20200;-91
2022/01/06 02:21:45;;;;;;;14.33;3.27;;;;;;;;;;6176377;23;20209;-91
2022/01/06 02:24:51;;;;;;;16.33;3.63;;;;;;;;;;6177167;23;20163;-91
2022/01/06 02:28:00;;;;;;;9.27;2.40;;;;;;;;;;6175516;23;20216;-91
2022/01/06 02:31:05;;;;;;;9.60;2.97;;;;;;;;;;6176327;23;20212;-93
2022/01/06 02:38:32;;;;;;;12.90;2.67;;;;;;;;;;6177466;23;20165;-92
2022/01/06 02:41:46;;;;;;;11.37;3.13;;;;;;;;;;6177822;23;20248;-92
2022/01/06 02:44:51;;;;;;;6.20;2.37;;;;;;;;;;6176449;23;20209;-92
2022/01/06 02:47:58;;;;;;;8.40;2.20;;;;;;;;;;6176305;23;20197;-91
2022/01/06 02:51:04;;;;;;;11.73;2.50;;;;;;;;;;6175955;23;20160;-92
2022/01/06 02:54:12;;;;;;;10.77;3.03;;;;;;;;;;6175208;23;20172;-92
2022/01/06 02:57:18;;;;;;;12.07;2.47;;;;;;;;;;6175622;23;20193;-91
2022/01/06 03:00:23;;;;;;;16.33;2.73;;;;;;;;;;6174114;23;20163;-91
2022/01/06 03:03:29;;;;;;;15.03;2.57;;;;;;;;;;6175529;23;20225;-93
2022/01/06 03:06:40;;;;;;;14.63;2.33;;;;;;;;;;6176865;23;20165;-91
2022/01/06 03:09:54;;;;;;;17.60;2.87;;;;;;;;;;6176160;23;20164;-90
2022/01/06 03:12:59;;;;;;;10.23;2.70;;;;;;;;;;6177404;23;20205;-91
2022/01/06 03:16:05;;;;;;;10.13;2.73;;;;;;;;;;6177938;23;20160;-90
2022/01/06 03:19:10;;;;;;;14.17;3.40;;;;;;;;;;6176815;23;20144;-91
2022/01/06 03:22:16;;;;;;;16.97;3.20;;;;;;;;;;6176913;23;20200;-91
2022/01/06 03:25:23;;;;;;;16.30;3.53;;;;;;;;;;6175155;23;20592;-91
2022/01/06 03:28:31;;;;;;;8.43;2.60;;;;;;;;;;6176644;23;20172;-92
2022/01/06 03:31:37;;;;;;;23.97;4.03;;;;;;;;;;6175695;23;20202;-91
2022/01/06 03:38:02;;;;;;;12.57;2.60;;;;;;;;;;6158995;23;20165;-91
2022/01/06 03:41:09;;;;;;;8.40;2.20;;;;;;;;;;6159739;23;20220;-91
2022/01/06 03:44:16;;;;;;;9.53;2.60;;;;;;;;;;6159038;23;20172;-91
2022/01/06 03:47:21;;;;;;;10.90;2.33;;;;;;;;;;6158877;23;20164;-91
2022/01/06 03:50:27;;;;;;;11.47;2.50;;;;;;;;;;6158847;23;20212;-91
2022/01/06 03:53:40;;;;;;;10.50;2.03;;;;;;;;;;6159085;23;20168;-91
2022/01/06 03:56:48;;;;;;;10.40;1.93;;;;;;;;;;6159070;23;20164;-91
2022/01/06 03:59:54;;;;;;;8.53;2.67;;;;;;;;;;6159984;23;20213;-92
2022/01/06 04:02:59;;;;;;;10.23;2.20;;;;;;;;;;6158817;23;20169;-90
2022/01/06 04:06:04;;;;;;;8.73;2.20;;;;;;;;;;6159321;23;20168;-91
2022/01/06 04:09:11;;;;;;;8.27;2.23;;;;;;;;;;6158853;23;20169;-90
2022/01/06 04:12:21;;;;;;;11.57;2.23;;;;;;;;;;6158537;23;20229;-91
2022/01/06 04:15:26;;;;;;;12.07;3.00;;;;;;;;;;6159021;23;20169;-91
2022/01/06 04:18:34;;;;;;;12.57;2.50;;;;;;;;;;6158977;23;20218;-90
2022/01/06 04:21:39;;;;;;;8.80;2.30;;;;;;;;;;6157593;23;20191;-90
2022/01/06 04:24:45;;;;;;;11.27;2.57;;;;;;;;;;6158932;23;20213;-92
2022/01/06 04:27:53;;;;;;;11.93;2.77;;;;;;;;;;6159388;23;20168;-92
2022/01/06 04:30:59;;;;;;;6.03;2.30;;;;;;;;;;6185151;23;20215;-91
2022/01/06 04:34:06;;;;;;;11.77;2.27;;;;;;;;;;6189257;23;20166;-92
2022/01/06 05:00:44;;;;;;;7.53;2.20;;;;;;;;;;6072786;23;1239746;-90
2022/01/06 05:03:50;;;;;;;8.80;2.53;;;;;;;;;;6162190;23;20173;-91
2022/01/06 05:06:56;;;;;;;10.80;2.37;;;;;;;;;;6161882;23;20210;-91
2022/01/06 07:04:53;;;;;;;10.77;3.70;;;;;;;;;;6117253;23;20262;-90
2022/01/06 07:07:59;;;;;;;6.93;2.73;;;;;;;;;;6099436;23;20217;-90
2022/01/06 16:46:11;;;;;;;13.60;5.47;;;;;;;;;;6161522;23;20196;-89
2022/01/06 16:49:17;;;;;;;16.63;5.67;;;;;;;;;;6187020;23;20192;-90
2022/01/06 16:52:23;;;;;;;13.53;5.00;;;;;;;;;;6185961;23;20205;-91
2022/01/06 16:55:28;;;;;;;16.63;7.30;;;;;;;;;;6186867;23;20623;-89
2022/01/06 16:58:33;;;;;;;20.63;8.10;;;;;;;;;;6188316;23;20283;-90
2022/01/06 17:01:41;;;;;;;22.77;8.90;;;;;;;;;;6184560;23;20248;-91
2022/01/06 17:04:58;;;;;;;21.20;8.23;;;;;;;;;;6186494;23;20168;-90
2022/01/06 17:08:03;;;;;;;28.40;11.40;;;;;;;;;;6184379;23;20207;-89
2022/01/06 17:15:37;;;;;;;19.53;5.90;;;;;;;;;;6205978;23;20147;-90
2022/01/06 17:18:44;;;;;;;10.90;4.17;;;;;;;;;;6187447;23;20167;-91
2022/01/06 17:21:50;;;;;;;10.83;4.87;;;;;;;;;;6187031;23;20203;-91
2022/01/06 17:24:54;;;;;;;14.33;6.00;;;;;;;;;;6187277;23;20205;-89
2022/01/06 17:28:01;;;;;;;10.63;4.83;;;;;;;;;;6186886;23;20192;-91
2022/01/06 17:31:06;;;;;;;18.27;5.00;;;;;;;;;;6187515;23;20167;-90
2022/01/06 17:34:14;;;;;;;10.93;4.63;;;;;;;;;;6188824;23;20254;-91
2022/01/06 17:37:20;;;;;;;8.57;4.23;;;;;;;;;;6187960;23;20241;-91
2022/01/06 17:40:26;;;;;;;12.67;4.57;;;;;;;;;;6189650;23;20160;-89
2022/01/06 17:43:31;;;;;;;11.67;5.70;;;;;;;;;;6187769;23;20251;-89
2022/01/06 17:46:36;;;;;;;15.87;5.33;;;;;;;;;;6174251;23;20176;-90
2022/01/06 17:49:43;;;;;;;13.57;4.93;;;;;;;;;;6176335;23;20160;-90
2022/01/06 17:52:48;;;;;;;11.30;3.80;;;;;;;;;;6176731;23;20164;-91
2022/01/06 17:55:53;;;;;;;9.00;3.80;;;;;;;;;;6173988;23;20263;-91
2022/01/06 17:58:58;;;;;;;8.33;3.70;;;;;;;;;;6173853;23;20152;-91
2022/01/06 18:05:25;;;;;;;13.30;5.60;;;;;;;;;;6179744;23;20181;-90
2022/01/06 18:12:10;;;;;;;10.07;4.70;;;;;;;;;;6176044;23;20264;-90
2022/01/06 18:15:16;;;;;;;13.63;4.43;;;;;;;;;;6173952;23;20282;-89
2022/01/06 18:18:21;;;;;;;13.90;4.90;;;;;;;;;;6173643;23;20192;-91
2022/01/06 18:21:30;;;;;;;12.00;4.90;;;;;;;;;;6173602;23;20168;-91
2022/01/06 18:24:34;;;;;;;8.43;4.43;;;;;;;;;;6172727;23;20201;-91
2022/01/06 18:27:40;;;;;;;11.07;5.37;;;;;;;;;;6172694;23;20168;-90
2022/01/06 18:30:45;;;;;;;11.30;4.90;;;;;;;;;;6171546;23;20220;-90
2022/01/06 18:33:51;;;;;;;12.77;4.87;;;;;;;;;;6172128;23;20173;-90
2022/01/06 18:36:57;;;;;;;10.70;5.10;;;;;;;;;;6174553;23;20161;-91
2022/01/06 18:40:03;;;;;;;11.57;5.07;;;;;;;;;;6175972;23;20232;-90
2022/01/06 18:43:08;;;;;;;14.97;6.60;;;;;;;;;;6174620;23;20255;-89
2022/01/06 18:46:13;;;;;;;14.93;5.83;;;;;;;;;;6173030;23;20187;-90
2022/01/06 18:49:18;;;;;;;19.57;7.27;;;;;;;;;;6175475;23;20240;-91
2022/01/06 18:52:25;;;;;;;19.93;7.90;;;;;;;;;;6173771;23;20230;-91
2022/01/06 18:55:30;;;;;;;26.40;9.03;;;;;;;;;;6174165;23;20157;-89
2022/01/06 18:58:37;;;;;;;17.67;7.80;;;;;;;;;;6173710;23;20246;-90
2022/01/06 19:01:42;;;;;;;18.60;7.73;;;;;;;;;;6172172;23;20168;-90
2022/01/06 19:04:48;;;;;;;19.43;9.07;;;;;;;;;;6171519;23;20164;-90
2022/01/06 19:07:55;;;;;;;20.37;9.07;;;;;;;;;;6172221;23;20159;-91
2022/01/06 19:11:00;;;;;;;17.57;8.77;;;;;;;;;;6171875;23;20168;-91
2022/01/06 19:14:05;;;;;;;13.40;5.70;;;;;;;;;;6174041;23;20184;-90
2022/01/06 19:17:11;;;;;;;13.43;6.77;;;;;;;;;;6173563;23;20261;-90
2022/01/06 19:20:16;;;;;;;16.00;6.83;;;;;;;;;;6174347;23;20172;-90
2022/01/06 19:23:25;;;;;;;15.33;6.73;;;;;;;;;;6178727;23;20204;-91
2022/01/06 19:26:31;;;;;;;19.03;6.50;;;;;;;;;;6175287;23;20157;-90
2022/01/06 19:29:36;;;;;;;12.20;5.97;;;;;;;;;;6175292;23;20156;-91
2022/01/06 19:32:43;;;;;;;15.77;6.50;;;;;;;;;;6175770;23;20192;-92
2022/01/06 19:35:49;;;;;;;17.57;7.37;;;;;;;;;;6175518;23;20161;-90
2022/01/06 19:38:56;;;;;;;17.83;7.67;;;;;;;;;;6175664;23;20168;-91
2022/01/06 19:42:05;;;;;;;22.33;10.10;;;;;;;;;;6174378;23;20550;-90
2022/01/06 19:45:11;;;;;;;14.67;7.10;;;;;;;;;;6178631;23;20197;-90
2022/01/06 19:48:17;;;;;;;12.97;5.97;;;;;;;;;;6188517;23;20171;-91
2022/01/06 19:51:22;;;;;;;15.70;6.13;;;;;;;;;;6186626;23;20512;-89
2022/01/06 19:54:30;;;;;;;12.23;6.47;;;;;;;;;;6185432;23;20164;-90
2022/01/06 19:57:35;;;;;;;10.90;6.07;;;;;;;;;;6185991;23;20175;-90
2022/01/06 20:00:41;;;;;;;17.73;6.90;;;;;;;;;;6184269;23;20208;-91
2022/01/06 20:03:45;;;;;;;16.67;7.10;;;;;;;;;;6184467;23;20206;-90
2022/01/06 20:06:50;;;;;;;9.93;5.83;;;;;;;;;;6186073;23;20219;-89
2022/01/06 20:09:57;;;;;;;17.57;6.73;;;;;;;;;;6185715;23;20199;-90
2022/01/06 20:13:04;;;;;;;13.77;6.03;;;;;;;;;;6186341;23;20179;-91
2022/01/06 20:16:09;;;;;;;15.30;6.17;;;;;;;;;;6183583;23;20212;-89
2022/01/06 20:19:15;;;;;;;14.33;6.37;;;;;;;;;;6184892;23;20176;-91
2022/01/06 20:22:21;;;;;;;13.60;6.70;;;;;;;;;;6185860;23;20267;-90
2022/01/06 20:25:31;;;;;;;14.77;6.83;;;;;;;;;;6186378;23;20176;-90
2022/01/06 20:28:37;;;;;;;14.33;6.73;;;;;;;;;;6186465;23;20168;-91
2022/01/06 20:31:42;;;;;;;13.20;6.53;;;;;;;;;;6183942;23;20251;-90
2022/01/06 20:34:47;;;;;;;14.03;7.33;;;;;;;;;;6185613;23;20168;-91
2022/01/06 20:37:53;;;;;;;14.93;6.90;;;;;;;;;;6182188;23;20175;-91
2022/01/06 20:41:00;;;;;;;16.50;7.10;;;;;;;;;;6185066;23;20168;-91
2022/01/06 20:44:06;;;;;;;14.50;7.23;;;;;;;;;;6184678;23;20195;-91
2022/01/06 20:47:16;;;;;;;21.83;8.17;;;;;;;;;;6170680;23;20215;-90
2022/01/06 20:53:47;;;;;;;22.20;8.83;;;;;;;;;;6171583;23;20172;-89
2022/01/06 20:56:53;;;;;;;18.63;7.93;;;;;;;;;;6170582;23;20237;-90
2022/01/06 21:00:04;;;;;;;19.00;8.30;;;;;;;;;;6172903;23;20176;-89
2022/01/06 21:03:10;;;;;;;22.53;8.00;;;;;;;;;;6170735;23;20236;-90
2022/01/06 21:06:15;;;;;;;16.33;8.27;;;;;;;;;;6171923;23;20249;-89
2022/01/06 21:09:21;;;;;;;19.33;9.00;;;;;;;;;;6171146;23;20172;-88
2022/01/06 21:12:31;;;;;;;18.73;7.67;;;;;;;;;;6171073;23;20669;-89
2022/01/06 21:15:37;;;;;;;22.90;7.23;;;;;;;;;;6173166;23;20172;-91
2022/01/06 21:18:41;;;;;;;14.50;7.87;;;;;;;;;;6170729;23;20249;-90
2022/01/06 21:21:47;;;;;;;16.03;7.53;;;;;;;;;;6171594;23;20202;-89
2022/01/06 21:24:53;;;;;;;13.87;6.67;;;;;;;;;;6170669;23;20172;-89
2022/01/06 21:28:00;;;;;;;20.17;7.37;;;;;;;;;;6170858;23;20238;-89
2022/01/06 21:31:06;;;;;;;14.43;6.73;;;;;;;;;;6171068;23;20173;-90
2022/01/06 21:34:12;;;;;;;15.30;6.93;;;;;;;;;;6172265;23;20264;-88
2022/01/06 21:37:18;;;;;;;15.07;7.10;;;;;;;;;;6172606;23;20180;-90
2022/01/06 21:40:24;;;;;;;15.33;7.30;;;;;;;;;;6170196;23;20193;-89
2022/01/06 21:43:31;;;;;;;12.43;6.60;;;;;;;;;;6170412;23;20184;-89
2022/01/06 21:46:37;;;;;;;13.27;6.50;;;;;;;;;;6169498;23;20241;-89
2022/01/06 21:49:44;;;;;;;23.40;6.97;;;;;;;;;;6170021;23;20169;-89
2022/01/06 21:52:49;;;;;;;18.20;7.93;;;;;;;;;;6171019;23;20193;-89
2022/01/06 21:55:54;;;;;;;13.17;6.67;;;;;;;;;;6170233;23;20201;-91
2022/01/06 21:59:01;;;;;;;16.33;6.67;;;;;;;;;;6168275;23;20172;-90
2022/01/06 22:02:08;;;;;;;14.07;6.93;;;;;;;;;;6169771;23;20182;-91
2022/01/06 22:05:13;;;;;;;13.20;6.13;;;;;;;;;;6171821;23;20173;-92
2022/01/06 22:08:19;;;;;;;15.33;6.80;;;;;;;;;;6174647;23;20176;-91
2022/01/06 22:11:24;;;;;;;14.87;6.50;;;;;;;;;;6172970;23;20192;-90
2022/01/06 22:14:30;;;;;;;18.73;7.07;;;;;;;;;;6173522;23;20179;-90
2022/01/06 22:17:36;;;;;;;13.93;5.63;;;;;;;;;;6173660;23;20156;-90
2022/01/06 22:20:41;;;;;;;13.40;5.70;;;;;;;;;;6171602;23;20176;-89
2022/01/06 22:23:46;;;;;;;12.90;6.07;;;;;;;;;;6171808;23;20195;-90
2022/01/06 22:26:52;;;;;;;18.93;6.53;;;;;;;;;;6173137;23;20173;-89
2022/01/06 22:29:59;;;;;;;14.23;5.53;;;;;;;;;;6174776;23;20197;-90
2022/01/06 22:33:04;;;;;;;14.13;6.60;;;;;;;;;;6174097;23;20568;-90
2022/01/06 22:36:09;;;;;;;17.97;7.07;;;;;;;;;;6173407;23;20194;-90
2022/01/06 22:39:14;;;;;;;16.53;7.83;;;;;;;;;;6171568;23;20188;-90
2022/01/06 22:42:20;;;;;;;17.77;7.93;;;;;;;;;;6174762;23;20205;-90
2022/01/06 22:45:27;;;;;;;13.63;6.83;;;;;;;;;;6179489;23;20191;-90
2022/01/06 22:48:35;;;;;;;14.10;7.60;;;;;;;;;;6186461;23;20230;-89
2022/01/06 22:51:40;;;;;;;21.30;7.80;;;;;;;;;;6188000;23;20155;-90
2022/01/06 22:54:47;;;;;;;14.30;6.97;;;;;;;;;;6186284;23;20148;-90
2022/01/06 22:57:53;;;;;;;15.20;7.00;;;;;;;;;;6186290;23;20167;-89
2022/01/06 23:01:01;;;;;;;15.63;7.17;;;;;;;;;;6186864;23;20248;-89
2022/01/06 23:04:06;;;;;;;13.37;6.63;;;;;;;;;;6185504;23;20200;-89
2022/01/06 23:07:12;;;;;;;20.40;7.80;;;;;;;;;;6188406;23;20211;-89
2022/01/06 23:10:19;;;;;;;14.10;7.07;;;;;;;;;;6185601;23;20164;-91
2022/01/06 23:13:24;;;;;;;17.20;7.23;;;;;;;;;;6183936;23;20175;-90
2022/01/06 23:16:31;;;;;;;16.33;7.40;;;;;;;;;;6186556;23;20164;-90
2022/01/06 23:19:36;;;;;;;14.43;6.57;;;;;;;;;;6183851;23;20171;-90
2022/01/06 23:22:41;;;;;;;15.77;6.50;;;;;;;;;;6184078;23;20164;-90
2022/01/06 23:25:46;;;;;;;14.60;6.80;;;;;;;;;;6182993;23;20250;-90
2022/01/06 23:28:52;;;;;;;16.67;7.07;;;;;;;;;;6201705;23;20163;-90
2022/01/06 23:31:59;;;;;;;15.53;6.73;;;;;;;;;;6186877;23;20211;-91
2022/01/06 23:35:06;;;;;;;18.03;7.03;;;;;;;;;;6183406;23;20180;-90
2022/01/06 23:38:12;;;;;;;19.83;7.30;;;;;;;;;;6185966;23;20233;-89
2022/01/06 23:41:17;;;;;;;14.83;6.97;;;;;;;;;;6185429;23;20552;-91
2022/01/06 23:44:23;;;;;;;20.17;7.97;;;;;;;;;;6185304;23;20196;-90
2022/01/06 23:47:30;;;;;;;14.00;7.13;;;;;;;;;;6155598;23;20180;-91
2022/01/06 23:50:35;;;;;;;17.77;7.00;;;;;;;;;;6156394;23;20205;-90
2022/01/06 23:53:40;;;;;;;18.80;7.13;;;;;;;;;;6153909;23;20226;-90
2022/01/06 23:56:46;;;;;;;15.67;6.80;;;;;;;;;;6156295;23;20200;-90
2022/01/06 23:59:51;;;;;;;13.63;7.10;;;;;;;;;;6155417;23;20321;-89
